Scroll down
FLIGHT INFORMATION
PMDG Flight Operations

PFO23

At Arrival Gate

KIAD
 KLAX
DATE: 2018-08-23
GATE:  -
GATE DEPARTURE: 22:02
TAKEOFF: 22:10
DATE: 2018-08-24
GATE:  -
LANDING: 02:52
GATE ARRIVAL: 02:57
FLIGHT DATA
Crew: 
Speed: 
510 kts
Altitude: 
35,071 ft
Stage Length: 
1,983.6 nm
Block Time: 
4.9 hrs
Flight Time: 
4.7 hrs
Fuel Used: 
96,956 lb
Cleared Route: 
TRACK DATA
50,000 ft 1,000 kts
AIRCRAFT INFO AND CUMULATIVE STATS
Aircraft Type: 
B748F
Registration: 
SELCAL: 
MSN/LN: 
0 / 2
Total Flights: 
6
Total Block Time: 
52.1 hrs
Total Flight Time: 
50.7 hrs
Total Fuel Time: 
1,013,403 lb
DATALINK LOG | Newest first | Current as of: 2021-01-25 09:53:26
LABEL SEQUENCE CONTENT Dn/Up
QD575702:57 35.2▼ Dn
QC521202:52▼ Dn
2U0038KLAX 240053Z 25015KT 9SM FEW014 FEW200 23/18 A2993 RMK AO2 SLP134 T02330178 $▲ Up
2S1022KLAX▼ Dn
2U4804KLAX 232353Z 26014KT 9SM FEW014 FEW200 24/18 A2994 RMK AO2 SLP136 T02390178 10256 20239 56021 $▲ Up
2S5053KLAX▼ Dn
QB100722:10▼ Dn
QA021822:02 132.3▼ Dn


AIRCRAFT HISTORY
FLIGHT DATE FLIGHT NO. ORIGIN DESTINATION CLEARED ROUTE BLOCK TIME FLIGHT TIME FUEL USED PILOT
2018-08-24PFO24KLAX ZBAA 12.8 hrs12.4 hrs246,438 lbMichael Roth
2018-08-23PFO23KIAD KLAX 4.9 hrs4.7 hrs96,956 lbMichael Roth
2018-08-20PFO1204KSFO KIAD 4.9 hrs4.4 hrs94,882 lbMark Adeane
2018-08-19PFO3265YSSY KSFO 13.2 hrs12.9 hrs285,878 lbMark Adeane
2018-08-04PFO804KLAX YSSY 14.5 hrs14.2 hrs250,945 lbKyle Rodgers
2018-08-04PFO804KPAE KLAX 2.4 hrs2.1 hrs38,304 lbKyle Rodgers